Time;durP1;ratioP1;P1;durP2;ratioP2;P2;SDS_P1;SDS_P2;PMS_P1;PMS_P2;Temp;Humidity;BMP_temperature;BMP_pressure;BME280_temperature;BME280_humidity;BME280_pressure;Samples;Min_cycle;Max_cycle;Signal;HPM_P1;HPM_P2
2023/07/19 00:00:37;;;;;;;11.90;4.40;;;;;;;15.22;98.27;101267.09;5004217;28;20072;-77
2023/07/19 00:03:02;;;;;;;14.55;4.50;;;;;;;15.22;98.69;101272.50;4989706;28;20109;-76
2023/07/19 00:05:28;;;;;;;16.70;4.53;;;;;;;15.21;98.53;101259.94;4987588;28;20026;-77
2023/07/19 00:07:54;;;;;;;15.15;4.40;;;;;;;15.16;98.28;101254.09;4987384;28;20679;-76
2023/07/19 00:10:19;;;;;;;24.10;4.32;;;;;;;15.12;98.60;101258.03;4988094;28;20646;-76
2023/07/19 00:12:44;;;;;;;10.82;4.43;;;;;;;15.11;99.40;101259.03;4984712;28;20093;-76
2023/07/19 00:15:10;;;;;;;13.32;4.20;;;;;;;15.09;98.89;101255.59;4986546;28;20136;-76
2023/07/19 00:17:35;;;;;;;14.10;4.28;;;;;;;15.06;98.70;101262.13;4987509;28;20030;-76
2023/07/19 00:20:01;;;;;;;16.60;4.13;;;;;;;15.10;98.96;101251.91;4986854;28;20482;-76
2023/07/19 00:22:26;;;;;;;12.10;4.35;;;;;;;15.13;98.90;101251.66;4986823;28;20048;-76
2023/07/19 00:24:54;;;;;;;12.13;4.63;;;;;;;15.11;98.87;101242.78;4984567;28;20330;-76
2023/07/19 00:27:19;;;;;;;18.00;4.50;;;;;;;15.09;99.21;101239.38;4988199;28;20043;-76
2023/07/19 00:29:44;;;;;;;10.65;3.75;;;;;;;15.12;99.46;101236.38;4985967;28;20065;-76
2023/07/19 00:32:10;;;;;;;11.20;3.80;;;;;;;15.10;98.99;101231.09;4984151;28;20783;-76
2023/07/19 00:34:35;;;;;;;14.40;4.43;;;;;;;15.09;99.39;101233.94;4984881;28;20034;-76
2023/07/19 00:37:01;;;;;;;9.30;3.70;;;;;;;15.08;99.13;101233.09;4984709;28;20570;-76
2023/07/19 00:39:27;;;;;;;12.88;3.83;;;;;;;15.08;99.45;101234.94;4991476;28;20041;-77
2023/07/19 00:41:52;;;;;;;10.57;4.00;;;;;;;15.07;98.72;101219.69;4994683;28;20040;-76
2023/07/19 00:44:17;;;;;;;11.45;3.88;;;;;;;15.06;99.06;101213.41;5000045;28;20029;-77
2023/07/19 00:46:43;;;;;;;14.98;4.20;;;;;;;15.03;99.40;101214.53;4994547;28;20030;-77
2023/07/19 00:49:10;;;;;;;11.23;4.05;;;;;;;15.04;99.77;101210.00;4998416;28;20033;-76
2023/07/19 00:51:36;;;;;;;14.20;4.55;;;;;;;15.02;99.61;101215.53;4994035;28;20038;-77
2023/07/19 00:54:04;;;;;;;16.23;4.00;;;;;;;14.99;99.43;101206.81;5000710;28;20555;-77
2023/07/19 00:56:30;;;;;;;15.15;4.47;;;;;;;14.97;99.26;101209.66;4999555;28;20029;-76
2023/07/19 00:58:57;;;;;;;13.63;4.22;;;;;;;14.96;99.24;101207.06;5013042;28;20035;-77
2023/07/19 01:01:23;;;;;;;15.52;4.75;;;;;;;14.96;99.24;101213.34;4997691;28;20030;-77
2023/07/19 01:03:48;;;;;;;16.23;4.50;;;;;;;14.97;98.96;101225.88;4997866;28;20441;-77
2023/07/19 01:06:14;;;;;;;15.20;4.38;;;;;;;14.98;97.78;101214.06;4995570;28;20034;-77
2023/07/19 01:08:40;;;;;;;14.02;4.97;;;;;;;15.01;98.33;101208.41;4999927;28;20022;-77
2023/07/19 01:11:05;;;;;;;16.15;5.20;;;;;;;15.03;98.12;101209.09;4992910;28;20038;-76
2023/07/19 01:13:31;;;;;;;13.23;4.43;;;;;;;15.02;98.06;101202.00;4996370;28;20041;-77
2023/07/19 01:15:56;;;;;;;14.95;4.65;;;;;;;14.99;98.63;101202.28;4989665;28;20034;-76
2023/07/19 01:18:22;;;;;;;14.52;4.47;;;;;;;14.98;98.00;101202.41;5000167;28;20057;-76
2023/07/19 01:20:47;;;;;;;11.82;3.97;;;;;;;14.98;97.27;101205.97;4991446;28;20373;-77
2023/07/19 01:23:13;;;;;;;12.43;3.90;;;;;;;14.98;98.06;101199.69;5001716;28;20081;-77
2023/07/19 01:25:38;;;;;;;22.00;5.32;;;;;;;14.98;97.59;101199.69;4998404;28;20025;-77
2023/07/19 01:28:04;;;;;;;15.57;4.97;;;;;;;15.00;98.20;101195.84;5003951;28;20076;-77
2023/07/19 01:30:29;;;;;;;13.50;4.60;;;;;;;15.01;97.89;101189.44;4998332;28;20081;-77
2023/07/19 01:32:55;;;;;;;13.05;4.30;;;;;;;15.06;98.65;101186.34;5003396;28;20037;-77
2023/07/19 01:35:21;;;;;;;11.70;4.30;;;;;;;15.09;97.91;101187.94;5001798;28;20101;-77
2023/07/19 01:37:46;;;;;;;14.20;4.47;;;;;;;15.10;97.22;101179.66;4997842;28;20108;-77
2023/07/19 01:40:12;;;;;;;14.52;4.90;;;;;;;15.14;97.65;101183.84;5004912;28;20404;-77
2023/07/19 01:42:39;;;;;;;13.45;4.70;;;;;;;15.17;96.60;101182.72;4994577;28;20928;-77
2023/07/19 01:45:05;;;;;;;9.50;4.50;;;;;;;15.22;97.75;101180.44;4992236;28;20040;-77
2023/07/19 01:47:30;;;;;;;11.85;4.65;;;;;;;15.21;96.89;101181.44;4994753;28;20025;-76
2023/07/19 01:49:55;;;;;;;15.70;4.40;;;;;;;15.21;97.54;101184.13;4992676;28;20122;-77
2023/07/19 01:52:21;;;;;;;15.38;5.20;;;;;;;15.18;96.79;101181.69;4998696;28;20025;-77
2023/07/19 01:54:46;;;;;;;16.83;5.20;;;;;;;15.18;96.60;101184.41;4996381;28;20026;-76
2023/07/19 01:57:12;;;;;;;11.38;4.53;;;;;;;15.17;96.35;101193.53;4993868;28;21325;-77
2023/07/19 01:59:37;;;;;;;14.23;5.20;;;;;;;15.15;95.76;101185.56;4999684;28;20022;-77
2023/07/19 02:02:03;;;;;;;12.63;4.22;;;;;;;15.13;96.18;101186.66;4996729;28;20022;-77
2023/07/19 02:04:29;;;;;;;15.60;5.53;;;;;;;15.12;96.15;101182.25;4995834;28;20068;-77
2023/07/19 02:06:55;;;;;;;16.08;5.13;;;;;;;15.10;97.44;101186.94;4997914;28;20072;-77
2023/07/19 02:09:21;;;;;;;15.88;5.07;;;;;;;15.05;95.98;101181.06;5001847;28;20061;-77
2023/07/19 02:11:46;;;;;;;11.18;4.55;;;;;;;15.04;97.44;101180.22;4998728;28;20057;-77
2023/07/19 02:14:12;;;;;;;16.73;5.45;;;;;;;14.98;97.02;101184.31;5004549;28;20044;-77
2023/07/19 02:16:37;;;;;;;15.07;5.30;;;;;;;14.97;97.51;101179.03;4994236;28;20036;-77
2023/07/19 02:19:07;;;;;;;14.57;5.18;;;;;;;14.93;97.63;101175.72;4993180;28;20021;-77
2023/07/19 02:21:33;;;;;;;17.17;5.55;;;;;;;14.91;98.17;101161.47;5005599;28;20096;-77
2023/07/19 02:23:58;;;;;;;15.55;5.47;;;;;;;14.89;98.68;101155.34;5000421;28;20030;-77
2023/07/19 02:26:24;;;;;;;14.88;6.00;;;;;;;14.80;98.08;101164.25;4995479;28;20490;-77
2023/07/19 02:28:50;;;;;;;15.30;4.90;;;;;;;14.77;98.31;101165.34;4997726;28;20029;-77
2023/07/19 02:31:16;;;;;;;17.17;5.95;;;;;;;14.79;99.11;101174.22;4997957;28;20069;-77
2023/07/19 02:33:42;;;;;;;14.55;5.50;;;;;;;14.81;98.17;101171.38;4999917;28;20034;-77
2023/07/19 02:36:10;;;;;;;13.88;5.50;;;;;;;14.84;99.54;101165.69;4991863;28;20053;-77
2023/07/19 02:38:35;;;;;;;14.65;5.55;;;;;;;14.87;100.00;101161.88;4995091;28;20363;-77
2023/07/19 02:41:01;;;;;;;16.05;5.78;;;;;;;14.84;99.29;101160.28;5003557;28;20066;-77
2023/07/19 02:43:27;;;;;;;13.60;5.57;;;;;;;14.81;99.42;101158.69;5000519;28;20350;-76
2023/07/19 02:45:53;;;;;;;15.48;5.00;;;;;;;14.78;99.88;101166.22;4992474;28;20497;-77
2023/07/19 02:48:19;;;;;;;14.75;5.80;;;;;;;14.75;99.81;101170.06;5001897;28;20028;-77
2023/07/19 02:50:46;;;;;;;14.48;5.75;;;;;;;14.77;100.00;101169.91;5000128;28;20038;-76
2023/07/19 02:53:11;;;;;;;16.33;6.18;;;;;;;14.80;100.00;101173.22;4996228;28;20041;-77
2023/07/19 02:55:37;;;;;;;15.05;5.72;;;;;;;14.81;100.00;101168.66;4998811;28;20374;-77
2023/07/19 02:58:02;;;;;;;14.07;5.63;;;;;;;14.84;100.00;101168.41;4994112;28;20474;-76
2023/07/19 03:00:27;;;;;;;16.80;5.70;;;;;;;14.83;100.00;101166.69;5005547;28;20243;-77
2023/07/19 03:02:53;;;;;;;16.27;5.32;;;;;;;14.86;100.00;101163.69;4999562;28;20072;-77
2023/07/19 03:05:22;;;;;;;18.02;6.35;;;;;;;14.84;100.00;101158.41;4998405;28;20498;-77
2023/07/19 03:07:49;;;;;;;15.45;5.57;;;;;;;14.87;100.00;101159.16;5000880;28;20046;-77
2023/07/19 03:10:14;;;;;;;16.30;5.68;;;;;;;14.83;100.00;101167.56;5003702;28;20102;-77
2023/07/19 03:12:40;;;;;;;16.08;5.90;;;;;;;14.81;100.00;101172.22;4995470;28;20131;-77
2023/07/19 03:15:06;;;;;;;18.60;5.57;;;;;;;14.80;100.00;101175.06;4993847;28;20030;-77
2023/07/19 03:17:31;;;;;;;16.98;6.00;;;;;;;14.78;100.00;101177.91;4998042;28;20030;-77
2023/07/19 03:19:57;;;;;;;15.55;6.18;;;;;;;14.78;100.00;101169.78;5005118;28;20048;-77
2023/07/19 03:22:22;;;;;;;18.60;6.07;;;;;;;14.80;100.00;101167.81;4994949;28;20034;-77
2023/07/19 03:24:47;;;;;;;15.88;6.05;;;;;;;14.82;100.00;101173.09;4996911;28;20026;-77
2023/07/19 03:27:13;;;;;;;18.20;6.22;;;;;;;14.84;100.00;101174.66;4999623;28;20034;-77
2023/07/19 03:29:38;;;;;;;15.60;5.90;;;;;;;14.86;100.00;101179.94;5000246;28;20026;-77
2023/07/19 03:32:04;;;;;;;15.38;6.18;;;;;;;14.90;100.00;101183.25;4997216;28;20549;-77
2023/07/19 03:34:29;;;;;;;15.68;5.97;;;;;;;14.92;100.00;101189.38;5003375;28;20038;-77
2023/07/19 03:36:55;;;;;;;16.92;5.72;;;;;;;14.92;100.00;101184.84;4995504;28;20026;-77
2023/07/19 03:39:20;;;;;;;17.40;6.10;;;;;;;14.95;100.00;101176.47;5000807;28;20057;-77
2023/07/19 03:41:45;;;;;;;17.02;6.60;;;;;;;14.97;100.00;101184.44;4996490;28;20168;-77
2023/07/19 03:44:11;;;;;;;21.33;6.65;;;;;;;14.98;100.00;101181.59;4994127;28;20538;-77
2023/07/19 03:46:36;;;;;;;18.38;6.57;;;;;;;15.00;100.00;101179.59;4992414;28;20220;-77
2023/07/19 03:49:01;;;;;;;17.35;6.03;;;;;;;15.01;100.00;101178.63;5000555;28;20514;-77
2023/07/19 03:51:27;;;;;;;21.42;6.07;;;;;;;15.02;100.00;101188.47;4997078;28;20214;-77
2023/07/19 03:53:52;;;;;;;17.65;6.20;;;;;;;15.03;100.00;101183.91;4995012;28;20117;-77
2023/07/19 03:56:18;;;;;;;18.95;5.95;;;;;;;15.03;100.00;101181.19;4995559;28;20068;-77
2023/07/19 03:58:48;;;;;;;18.60;6.35;;;;;;;15.00;100.00;101190.44;4997961;28;20029;-77
2023/07/19 04:01:14;;;;;;;17.80;6.90;;;;;;;15.01;100.00;101194.00;4999268;28;20026;-77
2023/07/19 04:03:40;;;;;;;16.00;6.07;;;;;;;15.01;100.00;101197.56;4997315;28;20179;-77
2023/07/19 04:06:06;;;;;;;17.80;5.78;;;;;;;15.02;100.00;101187.59;5000794;28;20449;-77
2023/07/19 04:08:31;;;;;;;15.80;6.07;;;;;;;15.02;100.00;101191.19;5002830;28;20052;-77
2023/07/19 04:10:58;;;;;;;18.38;6.93;;;;;;;15.05;100.00;101178.34;4994888;28;20657;-76
2023/07/19 04:13:23;;;;;;;19.55;6.72;;;;;;;15.07;100.00;101190.78;5003721;28;20140;-77
2023/07/19 04:15:49;;;;;;;15.10;6.18;;;;;;;15.09;100.00;101185.22;4998617;28;20115;-77
2023/07/19 04:18:14;;;;;;;17.63;6.75;;;;;;;15.10;100.00;101176.97;4993206;28;20049;-77
2023/07/19 04:20:39;;;;;;;17.05;7.07;;;;;;;15.13;100.00;101181.25;5003423;28;20049;-77
2023/07/19 04:23:05;;;;;;;19.13;7.68;;;;;;;15.17;100.00;101180.00;5001859;28;20069;-77
2023/07/19 04:25:31;;;;;;;18.65;7.90;;;;;;;15.17;100.00;101188.97;5001957;28;20026;-77
2023/07/19 04:27:56;;;;;;;17.10;7.25;;;;;;;15.19;100.00;101188.84;5015180;28;20034;-77
2023/07/19 04:30:22;;;;;;;19.13;8.00;;;;;;;15.19;100.00;101183.44;5004717;28;20389;-77
2023/07/19 04:32:48;;;;;;;19.70;8.52;;;;;;;15.21;100.00;101186.84;5000234;28;20037;-77
2023/07/19 04:35:14;;;;;;;20.02;7.93;;;;;;;15.26;100.00;101187.31;5002572;28;20065;-77
2023/07/19 04:37:40;;;;;;;17.95;8.00;;;;;;;15.30;100.00;101188.75;4999519;28;20085;-77
2023/07/19 04:40:11;;;;;;;24.70;8.65;;;;;;;15.32;100.00;101194.88;5004135;28;20033;-77
2023/07/19 04:42:36;;;;;;;21.42;7.55;;;;;;;15.37;100.00;101189.94;4998125;28;20129;-76
2023/07/19 04:45:02;;;;;;;19.27;7.90;;;;;;;15.42;100.00;101191.34;4997789;28;20180;-77
2023/07/19 04:47:28;;;;;;;19.48;8.02;;;;;;;15.41;100.00;101195.94;4999399;28;20030;-77
2023/07/19 04:49:53;;;;;;;20.80;7.93;;;;;;;15.40;100.00;101188.78;4999049;28;20081;-77
2023/07/19 04:52:19;;;;;;;20.05;7.95;;;;;;;15.43;100.00;101191.22;4997872;28;20423;-77
2023/07/19 04:54:47;;;;;;;18.95;7.88;;;;;;;15.48;100.00;101197.09;4989408;28;20112;-76
2023/07/19 04:57:13;;;;;;;20.83;7.97;;;;;;;15.50;100.00;101200.53;4999648;28;20029;-77
2023/07/19 04:59:38;;;;;;;18.90;7.72;;;;;;;15.54;100.00;101201.13;4995477;28;20026;-77
2023/07/19 05:02:04;;;;;;;22.77;7.82;;;;;;;15.59;100.00;101201.56;4998178;28;20025;-77
2023/07/19 05:04:29;;;;;;;21.88;8.27;;;;;;;15.63;100.00;101205.72;4996035;28;20021;-77
2023/07/19 05:06:55;;;;;;;18.65;7.65;;;;;;;15.66;100.00;101197.31;4999144;28;20096;-77
2023/07/19 05:09:20;;;;;;;20.15;7.90;;;;;;;15.67;100.00;101207.16;4999846;28;20756;-77
2023/07/19 05:11:46;;;;;;;18.77;7.88;;;;;;;15.72;100.00;101201.31;4998278;28;20375;-77
2023/07/19 05:14:11;;;;;;;18.40;7.82;;;;;;;15.75;100.00;101197.47;4997159;28;20022;-77
2023/07/19 05:16:36;;;;;;;19.95;7.53;;;;;;;15.82;100.00;101204.09;4992943;28;20425;-77
2023/07/19 05:19:02;;;;;;;20.70;7.88;;;;;;;15.88;100.00;101203.53;4999188;28;20434;-77
2023/07/19 05:21:28;;;;;;;19.55;7.63;;;;;;;15.92;100.00;101204.13;5001011;28;20536;-77
2023/07/19 05:23:53;;;;;;;18.08;8.18;;;;;;;15.96;100.00;101205.56;5006331;28;20033;-77
2023/07/19 05:26:19;;;;;;;20.77;7.30;;;;;;;16.01;100.00;101206.84;4995350;28;20109;-77
2023/07/19 05:28:45;;;;;;;21.08;8.88;;;;;;;16.06;100.00;101207.31;5000530;28;20029;-77
2023/07/19 05:31:11;;;;;;;20.42;7.78;;;;;;;16.12;99.91;101203.19;5000418;28;20037;-77
2023/07/19 05:33:37;;;;;;;23.73;8.60;;;;;;;16.18;99.65;101207.16;4998865;28;20073;-77
2023/07/19 05:36:02;;;;;;;18.40;7.50;;;;;;;16.22;99.03;101201.34;5003353;28;20033;-77
2023/07/19 05:38:28;;;;;;;21.88;8.65;;;;;;;16.27;99.27;101200.91;5003012;28;20050;-77
2023/07/19 05:41:00;;;;;;;20.90;8.77;;;;;;;16.34;98.45;101193.94;4993792;28;20455;-77
2023/07/19 05:43:26;;;;;;;22.80;9.05;;;;;;;16.40;100.00;101190.63;4998997;28;20027;-77
2023/07/19 05:45:51;;;;;;;22.55;8.85;;;;;;;16.47;97.92;101195.50;4995321;28;20026;-77
2023/07/19 05:48:17;;;;;;;22.88;8.52;;;;;;;16.53;99.51;101189.47;4993763;28;20030;-77
2023/07/19 05:50:42;;;;;;;26.73;8.80;;;;;;;16.58;98.38;101192.63;5000217;28;20052;-77
2023/07/19 05:53:07;;;;;;;20.73;8.50;;;;;;;16.65;97.53;101191.06;4993885;28;20072;-79
2023/07/19 05:55:33;;;;;;;21.00;9.07;;;;;;;16.70;94.12;101194.19;4989844;28;20025;-79
2023/07/19 05:57:58;;;;;;;20.33;8.10;;;;;;;16.75;95.57;101196.47;4996364;28;20431;-79
2023/07/19 06:00:24;;;;;;;22.67;7.90;;;;;;;16.83;95.35;101195.75;4994950;28;20395;-79
2023/07/19 06:02:53;;;;;;;20.33;8.10;;;;;;;16.87;93.08;101198.06;4992111;28;20502;-78
2023/07/19 06:05:19;;;;;;;19.02;7.85;;;;;;;16.93;94.33;101200.19;4997877;28;21544;-79
2023/07/19 06:07:46;;;;;;;20.88;8.07;;;;;;;16.97;93.52;101192.63;4993723;28;20157;-79
2023/07/19 06:10:11;;;;;;;21.05;8.27;;;;;;;17.02;92.54;101197.63;4998592;28;20425;-79
2023/07/19 06:12:36;;;;;;;17.48;7.18;;;;;;;17.06;91.08;101194.47;4993813;28;20026;-79
2023/07/19 06:15:02;;;;;;;21.17;8.35;;;;;;;17.11;92.67;101197.56;5000489;28;20053;-79
2023/07/19 06:17:27;;;;;;;18.00;7.80;;;;;;;17.18;93.45;101207.88;4991223;28;20038;-79
2023/07/19 06:19:53;;;;;;;21.05;8.23;;;;;;;17.24;90.95;101202.69;4999317;28;20022;-79
2023/07/19 06:22:18;;;;;;;22.05;7.85;;;;;;;17.30;91.73;101201.25;5007807;28;20022;-79
2023/07/19 06:24:43;;;;;;;19.98;8.07;;;;;;;17.35;90.24;101196.25;4991922;28;20046;-78
2023/07/19 06:27:09;;;;;;;19.25;8.05;;;;;;;17.40;90.80;101191.19;4996781;28;20089;-80
2023/07/19 06:29:34;;;;;;;21.55;7.90;;;;;;;17.42;89.29;101191.94;4988548;28;20532;-80
2023/07/19 06:32:00;;;;;;;21.92;8.32;;;;;;;17.48;91.37;101193.16;5004185;28;20029;-72
2023/07/19 06:34:25;;;;;;;22.10;7.55;;;;;;;17.50;90.00;101185.75;5002582;28;20029;-73
2023/07/19 06:36:51;;;;;;;20.25;8.60;;;;;;;17.52;88.69;101182.88;4992379;28;20377;-81
2023/07/19 06:39:16;;;;;;;21.02;8.43;;;;;;;17.55;89.08;101193.44;5000764;28;20129;-80
2023/07/19 06:41:42;;;;;;;21.65;8.35;;;;;;;17.57;88.19;101191.41;4997809;28;20395;-81
2023/07/19 06:44:07;;;;;;;20.50;7.90;;;;;;;17.59;88.99;101194.84;4995551;28;20022;-79
2023/07/19 06:46:32;;;;;;;25.50;8.20;;;;;;;17.62;88.84;101205.44;5001345;28;20104;-79
2023/07/19 06:48:58;;;;;;;24.88;8.07;;;;;;;17.68;89.37;101193.94;5003229;28;20060;-81
2023/07/19 06:51:23;;;;;;;21.95;7.80;;;;;;;17.74;87.71;101197.94;5027033;23;20045;-75
2023/07/19 06:53:48;;;;;;;19.40;7.93;;;;;;;17.82;88.98;101196.16;5012538;28;20152;-74
2023/07/19 06:56:13;;;;;;;20.75;8.88;;;;;;;17.96;89.53;101202.97;5020811;28;20029;-74
2023/07/19 06:58:39;;;;;;;20.95;7.82;;;;;;;18.04;90.14;101199.50;5017253;28;20013;-75
2023/07/19 07:01:04;;;;;;;23.10;7.82;;;;;;;18.10;87.99;101198.91;5015923;28;20109;-75
2023/07/19 07:03:29;;;;;;;19.55;6.88;;;;;;;18.20;88.34;101207.00;5022384;28;20021;-74
2023/07/19 07:05:55;;;;;;;22.05;7.55;;;;;;;18.26;88.54;101200.94;5025276;28;20037;-76
2023/07/19 07:08:20;;;;;;;22.25;8.07;;;;;;;18.34;87.46;101203.72;5015913;28;20497;-78
2023/07/19 07:10:46;;;;;;;21.60;7.18;;;;;;;18.45;86.06;101202.66;5019634;28;20235;-75
2023/07/19 07:13:11;;;;;;;19.48;7.63;;;;;;;18.52;87.50;101209.19;5014989;28;20042;-75
2023/07/19 07:15:36;;;;;;;17.95;7.22;;;;;;;18.55;86.89;101202.59;5026469;28;20029;-74
2023/07/19 07:18:02;;;;;;;18.05;6.60;;;;;;;18.57;84.29;101203.25;5025594;28;20034;-74
2023/07/19 07:20:27;;;;;;;16.48;5.95;;;;;;;18.61;84.43;101209.25;5024182;28;20022;-74
2023/07/19 07:22:53;;;;;;;17.35;6.10;;;;;;;18.64;84.23;101206.22;5027287;28;20045;-75
2023/07/19 07:25:21;;;;;;;17.17;5.93;;;;;;;18.66;84.09;101205.03;5031010;28;20033;-74
2023/07/19 07:27:46;;;;;;;18.88;6.80;;;;;;;18.67;82.81;101203.19;5027967;28;20040;-75
2023/07/19 07:30:12;;;;;;;24.35;6.45;;;;;;;18.70;84.62;101205.59;5032334;28;20090;-75
2023/07/19 07:32:37;;;;;;;19.20;6.60;;;;;;;18.71;83.54;101207.28;5028019;28;20491;-75
2023/07/19 07:35:03;;;;;;;17.90;5.78;;;;;;;18.74;83.39;101201.56;5022304;28;20037;-75
2023/07/19 07:37:28;;;;;;;18.17;6.07;;;;;;;18.75;83.50;101195.06;5028452;28;20018;-74
2023/07/19 07:39:54;;;;;;;13.98;4.93;;;;;;;18.79;83.79;101198.34;5018161;28;20127;-75
2023/07/19 07:42:20;;;;;;;18.33;5.78;;;;;;;18.83;83.71;101195.16;5024440;28;20029;-74
2023/07/19 07:44:45;;;;;;;19.23;5.55;;;;;;;18.89;82.42;101198.28;5026171;28;20084;-74
2023/07/19 07:47:11;;;;;;;14.38;5.65;;;;;;;18.91;81.81;101199.81;5027721;28;20025;-75
2023/07/19 07:49:36;;;;;;;15.93;5.53;;;;;;;18.92;82.03;101197.94;5025828;28;20030;-75
2023/07/19 07:52:03;;;;;;;25.98;5.63;;;;;;;18.93;81.75;101200.53;5027605;28;20054;-75
2023/07/19 07:54:28;;;;;;;16.58;5.38;;;;;;;18.97;82.33;101203.78;5025064;28;20030;-74
2023/07/19 07:56:54;;;;;;;13.30;4.63;;;;;;;18.99;81.96;101204.47;5027496;28;20069;-74
2023/07/19 07:59:19;;;;;;;17.17;4.35;;;;;;;18.99;79.21;101199.03;5025144;28;20110;-74
2023/07/19 08:01:45;;;;;;;15.68;4.45;;;;;;;19.04;78.83;101199.41;5025648;28;20033;-74
2023/07/19 08:04:12;;;;;;;16.50;4.30;;;;;;;19.05;77.38;101198.41;5020445;28;20069;-75
2023/07/19 08:06:37;;;;;;;14.10;4.43;;;;;;;19.04;77.78;101194.81;5028740;28;20028;-73
2023/07/19 08:09:03;;;;;;;9.63;3.42;;;;;;;19.06;78.28;101194.66;5021719;28;20026;-76
2023/07/19 08:11:28;;;;;;;13.10;3.72;;;;;;;19.09;79.06;101188.88;5028961;28;20025;-75
2023/07/19 08:13:54;;;;;;;15.40;4.85;;;;;;;19.21;78.93;101190.34;5026290;28;20409;-75
2023/07/19 08:16:20;;;;;;;17.13;4.70;;;;;;;19.29;76.50;101184.06;5019223;28;20040;-75
2023/07/19 08:18:45;;;;;;;12.95;3.78;;;;;;;19.39;78.29;101183.97;5031110;28;20021;-74
2023/07/19 08:21:11;;;;;;;14.98;4.43;;;;;;;19.44;75.46;101176.13;5021992;28;20030;-76
2023/07/19 08:23:36;;;;;;;16.80;4.28;;;;;;;19.48;76.68;101174.81;5022701;28;20033;-74
2023/07/19 08:26:02;;;;;;;11.63;3.45;;;;;;;19.52;71.48;101183.53;5019067;28;20053;-74
2023/07/19 08:28:27;;;;;;;13.70;3.50;;;;;;;19.53;73.25;101190.66;5019406;28;20104;-75
2023/07/19 08:30:53;;;;;;;17.25;3.50;;;;;;;19.55;75.02;101183.19;5023194;28;20080;-75
2023/07/19 08:33:23;;;;;;;18.30;4.30;;;;;;;19.50;73.76;101180.97;5026793;28;20206;-74
2023/07/19 08:35:52;;;;;;;15.13;3.85;;;;;;;19.52;74.00;101178.06;5020880;28;20061;-75
2023/07/19 08:38:18;;;;;;;14.02;4.22;;;;;;;19.49;74.31;101181.97;5024988;28;20036;-75
2023/07/19 08:40:56;;;;;;;16.17;4.78;;;;;;;19.51;76.24;101181.81;5019510;28;20025;-74
2023/07/19 08:43:25;;;;;;;18.23;5.43;;;;;;;19.48;76.28;101182.13;5017184;28;20573;-74
2023/07/19 08:45:50;;;;;;;12.60;4.43;;;;;;;19.48;78.17;101185.69;5025337;28;20507;-75
2023/07/19 08:48:16;;;;;;;18.98;4.68;;;;;;;19.50;77.80;101182.81;5025097;28;20068;-74
2023/07/19 08:50:45;;;;;;;15.07;4.38;;;;;;;19.53;75.49;101185.22;5025290;28;20102;-74
2023/07/19 08:53:10;;;;;;;13.23;3.27;;;;;;;19.56;75.48;101180.31;5020467;28;20021;-74
2023/07/19 08:55:36;;;;;;;14.27;4.20;;;;;;;19.60;74.66;101180.81;5021574;28;20359;-75
2023/07/19 08:58:01;;;;;;;11.75;3.65;;;;;;;19.65;73.78;101177.59;5019873;28;20030;-74
2023/07/19 09:00:31;;;;;;;12.25;4.03;;;;;;;19.74;76.53;101182.06;5020958;28;20026;-75
2023/07/19 09:02:57;;;;;;;15.25;4.45;;;;;;;19.80;74.24;101176.00;5019600;28;20116;-74
2023/07/19 09:05:27;;;;;;;13.90;4.20;;;;;;;19.89;73.54;101185.91;5031392;28;20068;-75
2023/07/19 09:07:52;;;;;;;15.40;4.65;;;;;;;19.98;74.95;101183.22;5021152;28;20026;-75
2023/07/19 09:10:18;;;;;;;14.60;4.47;;;;;;;20.02;74.63;101192.78;5015475;28;20448;-75
2023/07/19 09:12:45;;;;;;;14.65;4.28;;;;;;;20.08;75.37;101183.91;5011093;28;20025;-75
2023/07/19 09:15:12;;;;;;;18.48;5.50;;;;;;;20.12;72.47;101189.88;5010861;28;20029;-75
2023/07/19 09:17:45;;;;;;;13.93;4.50;;;;;;;20.13;75.79;101186.97;5016781;28;20018;-74
2023/07/19 09:20:12;;;;;;;16.48;4.97;;;;;;;20.13;74.44;101191.59;5018648;28;20033;-74
2023/07/19 09:22:38;;;;;;;16.65;5.45;;;;;;;20.19;75.52;101190.91;5021506;28;20036;-72
2023/07/19 09:25:05;;;;;;;17.50;4.97;;;;;;;20.21;75.31;101181.56;5021238;28;20022;-73
2023/07/19 09:27:32;;;;;;;15.02;4.60;;;;;;;20.25;75.61;101179.34;5023603;28;20030;-72
2023/07/19 09:29:58;;;;;;;16.33;5.25;;;;;;;20.29;73.45;101171.66;5024323;28;20416;-71
2023/07/19 09:32:24;;;;;;;15.00;4.68;;;;;;;20.34;72.92;101172.03;5013561;28;20497;-71
2023/07/19 09:34:54;;;;;;;13.25;4.25;;;;;;;20.42;75.96;101185.66;5016857;28;20021;-72
2023/07/19 09:37:21;;;;;;;13.38;4.35;;;;;;;20.52;74.89;101180.91;5024581;28;20018;-72
2023/07/19 09:39:46;;;;;;;11.82;3.72;;;;;;;20.54;71.75;101178.88;5023835;28;20100;-72
2023/07/19 09:42:13;;;;;;;10.20;3.60;;;;;;;20.57;73.06;101184.00;5014583;28;20445;-73
2023/07/19 09:44:39;;;;;;;14.52;4.40;;;;;;;20.56;71.97;101192.34;5023779;28;20029;-72
2023/07/19 09:47:08;;;;;;;10.98;4.07;;;;;;;20.55;71.90;101186.00;5014848;28;20030;-72
2023/07/19 09:49:34;;;;;;;14.43;4.03;;;;;;;20.52;70.36;101175.44;5022765;28;20041;-72
2023/07/19 09:52:02;;;;;;;13.20;4.47;;;;;;;20.47;71.05;101185.16;5023558;28;20556;-71
2023/07/19 09:54:30;;;;;;;16.52;4.05;;;;;;;20.46;72.28;101176.13;5024781;28;20138;-72
2023/07/19 09:56:56;;;;;;;18.88;4.53;;;;;;;20.49;73.57;101185.84;5017815;28;20037;-73
2023/07/19 09:59:37;;;;;;;12.93;4.40;;;;;;;20.47;71.51;101182.44;5025839;28;20017;-71
2023/07/19 10:02:03;;;;;;;13.48;4.20;;;;;;;20.48;71.53;101179.53;5020842;28;20029;-72
2023/07/19 10:04:33;;;;;;;14.60;4.20;;;;;;;20.53;71.55;101179.88;5027184;28;20108;-72
2023/07/19 10:07:02;;;;;;;14.55;3.95;;;;;;;20.57;73.97;101178.53;5018652;28;20056;-72
2023/07/19 10:09:32;;;;;;;13.88;3.92;;;;;;;20.62;71.83;101177.16;5023125;28;20488;-71
2023/07/19 10:12:04;;;;;;;10.68;3.63;;;;;;;20.66;71.73;101184.88;5016555;28;20030;-72
2023/07/19 10:14:32;;;;;;;11.68;3.38;;;;;;;20.66;72.90;101179.41;5009667;28;20033;-72
2023/07/19 10:16:58;;;;;;;17.00;4.10;;;;;;;20.67;71.81;101180.25;5014593;28;20428;-73
2023/07/19 10:19:25;;;;;;;12.95;3.75;;;;;;;20.70;72.05;101185.38;5024967;28;20030;-74
2023/07/19 10:22:01;;;;;;;9.77;3.28;;;;;;;20.71;71.60;101174.28;5012399;28;20034;-72
2023/07/19 10:24:27;;;;;;;11.23;3.22;;;;;;;20.70;70.69;101183.47;5013278;28;20022;-71
2023/07/19 10:26:52;;;;;;;13.65;3.70;;;;;;;20.72;70.27;101180.63;5020411;28;20122;-73
2023/07/19 10:29:17;;;;;;;13.45;3.70;;;;;;;20.71;68.93;101179.75;5013986;28;20045;-72
2023/07/19 10:31:42;;;;;;;12.50;3.65;;;;;;;20.77;69.30;101186.41;5018001;28;20025;-73
2023/07/19 10:34:08;;;;;;;10.00;3.35;;;;;;;20.80;66.85;101177.00;5018422;28;20038;-72
2023/07/19 10:36:48;;;;;;;9.65;3.35;;;;;;;20.83;66.19;101174.78;5027319;28;20390;-72
2023/07/19 10:39:13;;;;;;;11.65;3.15;;;;;;;20.91;68.20;101177.50;5024098;28;20032;-72
2023/07/19 10:41:39;;;;;;;14.02;3.10;;;;;;;20.93;68.00;101175.44;5024401;28;20050;-73
2023/07/19 10:44:04;;;;;;;9.30;2.90;;;;;;;20.93;66.80;101172.72;5027925;28;20033;-72
2023/07/19 10:46:29;;;;;;;9.35;3.15;;;;;;;20.94;67.13;101177.16;5033344;28;20087;-73
2023/07/19 10:48:55;;;;;;;7.78;3.30;;;;;;;20.93;68.24;101172.72;5030825;28;20029;-72
2023/07/19 10:51:20;;;;;;;7.95;2.95;;;;;;;20.97;67.77;101172.38;5022826;28;20050;-71
2023/07/19 10:53:47;;;;;;;12.90;3.65;;;;;;;21.05;67.43;101175.09;5033571;28;20033;-72
2023/07/19 10:56:15;;;;;;;10.25;3.28;;;;;;;21.09;67.28;101171.00;5028142;28;20095;-73
2023/07/19 10:58:40;;;;;;;9.68;3.10;;;;;;;21.10;67.52;101167.25;5026830;28;20081;-74
2023/07/19 11:01:06;;;;;;;10.27;3.20;;;;;;;21.03;68.27;101172.53;5030632;28;20481;-71
2023/07/19 11:03:32;;;;;;;10.05;3.20;;;;;;;20.95;69.03;101184.34;5031845;28;20044;-72
2023/07/19 11:05:58;;;;;;;9.73;3.53;;;;;;;20.82;77.16;101181.28;5012390;28;20038;-72
2023/07/19 11:08:28;;;;;;;16.35;4.25;;;;;;;20.70;81.43;101178.03;5011433;28;20033;-73